• Join FlightAware (Why Join?)
  • Login
  • US Flag 
11:57PM EDT


 

Airport Tracker/Info


-or-


 

Live Flight TrackerFlight Track Log ✈ FFT333 ✈ 09-May-2013 ✈ KDEN - KABQ

Flight Track Log - Related Links

Times and Time Zones

All times are in EDT time to prevent confusion due to time zone crossing. See the FFT333 flight status page for this flight to view local times or setup timezone preferences in your user account.

Time Position Orientation Groundspeed Altitude Reporting Facility
EDT Latitude Longitude Course Direction KTS MPH feet Rate Location/Type
10:14AM 39.8333 -104.7667 201° Southwest 176 203 6,700  Level Denver TRACON
10:15AM 39.8333 -104.8167 270° West 223 257 7,500 1,680 Climbing Denver TRACON
10:16AM 39.7833 -104.9167 237° Southwest 305 351 10,000 2,040 Climbing Denver TRACON
10:17AM 39.7572 -104.9208 187° South 298 343 10,500 2,100 Climbing Denver Center
10:18AM 39.6653 -104.9306 185° South 332 382 12,800 2,640 Climbing Denver Center
10:19AM 39.5611 -104.9175 174° South 353 406 16,000 2,700 Climbing Denver Center
10:20AM 39.3743 -104.8813 201° Southwest  Level Estimated
10:20AM 39.4653 -104.8842 165° South 358 412 18,400  Level Denver Center
10:21AM 39.3664 -104.8511 166° South 365 420 20,700 2,220 Climbing Denver Center
10:22AM 39.2539 -104.8114 165° South 391 450 23,000 1,980 Climbing Denver Center
10:23AM 39.1464 -104.8600 199° South 415 478 24,900 1,440 Climbing Denver Center
10:24AM 39.0381 -104.9167 202° Southwest 420 483 26,000 720 Climbing Denver Center
10:25AM 38.9175 -104.9822 203° Southwest 421 484 26,400 960 Climbing Denver Center
10:26AM 38.8142 -105.0364 202° Southwest 418 481 28,000 1,380 Climbing Denver Center
10:27AM 38.7072 -105.0947 203° Southwest 429 494 29,300 1,260 Climbing Denver Center
10:28AM 38.5803 -105.1611 202° Southwest 438 504 30,600 1,200 Climbing Denver Center
10:29AM 38.4669 -105.2225 203° Southwest 450 518 31,900 1,920 Climbing Denver Center
10:30AM 38.3369 -105.2936 203° Southwest 455 524 34,600 1,980 Climbing Denver Center
10:31AM 38.2322 -105.3494 203° Southwest 440 506 36,000 660 Climbing Denver Center
10:32AM 38.1103 -105.4142 203° Southwest 430 495 36,000  Level Denver Center
10:33AM 38.0047 -105.4697 203° Southwest 429 494 36,000  Level Denver Center
10:34AM 37.8828 -105.5358 203° Southwest 429 494 36,000  Level Denver Center
10:35AM 37.7775 -105.5892 202° Southwest 427 491 36,000  Level Denver Center
10:36AM 37.6553 -105.6533 203° Southwest 425 489 36,000  Level Denver Center
10:37AM 37.5511 -105.7086 203° Southwest 425 489 36,000  Level Denver Center
10:38AM 37.4431 -105.7647 202° Southwest 427 491 36,100  Climbing Denver Center
10:39AM 37.3208 -105.8278 202° Southwest 425 489 36,000 -60 Descending Denver Center
10:40AM 37.2131 -105.8744 199° South 426 490 36,000 -60 Level Denver Center
10:41AM 37.0889 -105.9286 199° South 421 484 35,900 -540 Descending Denver Center
10:42AM 36.9869 -105.9744 200° South 420 483 35,000 -1,020 Descending Denver Center
10:43AM 36.8614 -106.0275 199° South 425 489 33,800 -1,020 Descending Denver Center
10:44AM 36.7608 -106.0731 200° South 410 472 32,900 -900 Descending Denver Center
10:45AM 36.6458 -106.1228 199° South 406 467 32,000 -480 Descending Denver Center
10:46AM 36.5517 -106.1664 200° South 413 475 32,000  Level Albuquerque Center
10:47AM 36.4361 -106.2175 200° South 398 458 32,000 -1,080 Level Albuquerque Center
10:48AM 36.3375 -106.2628 200° South 395 455 29,800 -2,040 Descending Albuquerque Center
10:49AM 36.2200 -106.3147 200° South 397 457 27,800 -2,280 Descending Albuquerque Center
10:51AM 36.1228 -106.3575 200° South 401 461 25,100 -2,520 Descending Albuquerque Center
10:52AM 36.0178 -106.4017 199° South 399 459 22,600 -1,920 Descending Albuquerque Center
10:53AM 35.9211 -106.4447 200° South 378 435 21,200 -1,800 Descending Albuquerque Center
10:54AM 35.8078 -106.4908 198° South 350 403 19,000 -1,800 Descending Albuquerque Center
10:55AM 35.7211 -106.5253 198° South 344 396 17,600 -1,500 Descending Albuquerque Center
10:56AM 35.6336 -106.5625 199° South 337 388 16,000 -1,500 Descending Albuquerque Center
10:57AM 35.5494 -106.6003 200° South 328 377 14,500 -1,200 Descending Albuquerque Center
10:57AM 35.4939 -106.6292 203° Southwest 316 364 14,100 -780 Descending Albuquerque Center
10:58AM 35.4717 -106.6431 207° Southwest 312 359 13,600 -1,500 Descending Albuquerque Center
10:59AM 35.3783 -106.6931 204° Southwest 305 351 11,600 -1,740 Descending Albuquerque Center
11:00AM 35.2878 -106.7408 203° Southwest 299 344 10,100 -1,260 Descending Albuquerque Center
11:01AM 35.2167 -106.7842 206° Southwest 292 336 9,000 -540 Descending Albuquerque Center
11:02AM 35.1575 -106.8208 207° Southwest 263 303 9,100 -240 Climbing Albuquerque Center
11:03AM 35.1028 -106.8450 200° South 238 274 8,600 -900 Descending Albuquerque Center
11:04AM 35.0503 -106.8136 154° Southeast 221 254 7,400 -660 Descending Albuquerque Center
11:05AM 35.0439 -106.7531 97° East 172 198 7,400 -420 Level Albuquerque Center
11:06AM 35.0447 -106.6958 89° East 147 169 6,600 -780 Descending Albuquerque Center
11:07AM 35.0439 -106.6544 91° East 146 168 6,000 -780 Descending Albuquerque Center
11:07AM 35.0442 -106.6381 89° East 156 180 5,700 -420 Descending Albuquerque Center
11:08AM 35.0442 -106.5933 90° East 151 174 5,500 -240 Descending Albuquerque Center